sensor_id;sensor_type;location;lat;lon;timestamp;P1;durP1;ratioP1;P2;durP2;ratioP2
53036;SDS011;38924;52.134;4.666;2024-01-16T00:01:57;9.82;;;1.40;;
53036;SDS011;38924;52.134;4.666;2024-01-16T00:04:23;8.25;;;1.75;;
53036;SDS011;38924;52.134;4.666;2024-01-16T00:06:52;9.48;;;1.15;;
53036;SDS011;38924;52.134;4.666;2024-01-16T00:09:17;11.13;;;2.25;;
53036;SDS011;38924;52.134;4.666;2024-01-16T00:11:43;5.40;;;1.38;;
53036;SDS011;38924;52.134;4.666;2024-01-16T00:14:09;5.82;;;0.50;;
53036;SDS011;38924;52.134;4.666;2024-01-16T00:16:46;8.30;;;1.23;;
53036;SDS011;38924;52.134;4.666;2024-01-16T00:19:13;7.28;;;0.98;;
53036;SDS011;38924;52.134;4.666;2024-01-16T00:21:42;7.25;;;0.68;;
53036;SDS011;38924;52.134;4.666;2024-01-16T00:24:08;7.80;;;0.60;;
53036;SDS011;38924;52.134;4.666;2024-01-16T00:26:33;3.92;;;1.10;;
53036;SDS011;38924;52.134;4.666;2024-01-16T00:28:59;5.57;;;0.75;;
53036;SDS011;38924;52.134;4.666;2024-01-16T00:31:26;16.15;;;1.65;;
53036;SDS011;38924;52.134;4.666;2024-01-16T00:33:52;11.65;;;1.13;;
53036;SDS011;38924;52.134;4.666;2024-01-16T00:36:17;7.93;;;1.55;;
53036;SDS011;38924;52.134;4.666;2024-01-16T00:38:43;9.50;;;1.23;;
53036;SDS011;38924;52.134;4.666;2024-01-16T00:41:12;11.80;;;1.23;;
53036;SDS011;38924;52.134;4.666;2024-01-16T00:43:38;14.60;;;2.28;;
53036;SDS011;38924;52.134;4.666;2024-01-16T00:46:03;19.00;;;2.17;;
53036;SDS011;38924;52.134;4.666;2024-01-16T00:48:29;20.83;;;1.85;;
53036;SDS011;38924;52.134;4.666;2024-01-16T00:50:57;23.20;;;2.13;;
53036;SDS011;38924;52.134;4.666;2024-01-16T00:53:22;10.95;;;1.80;;
53036;SDS011;38924;52.134;4.666;2024-01-16T00:55:48;9.40;;;0.90;;
53036;SDS011;38924;52.134;4.666;2024-01-16T00:58:14;17.70;;;1.38;;
53036;SDS011;38924;52.134;4.666;2024-01-16T01:00:39;14.15;;;1.60;;
53036;SDS011;38924;52.134;4.666;2024-01-16T01:03:05;3.90;;;1.08;;
53036;SDS011;38924;52.134;4.666;2024-01-16T01:05:30;15.07;;;1.55;;
53036;SDS011;38924;52.134;4.666;2024-01-16T01:07:56;10.35;;;0.82;;
53036;SDS011;38924;52.134;4.666;2024-01-16T01:10:22;10.05;;;1.42;;
53036;SDS011;38924;52.134;4.666;2024-01-16T01:12:48;6.75;;;0.90;;
53036;SDS011;38924;52.134;4.666;2024-01-16T01:15:14;11.00;;;1.23;;
53036;SDS011;38924;52.134;4.666;2024-01-16T01:17:40;13.90;;;1.27;;
53036;SDS011;38924;52.134;4.666;2024-01-16T01:20:08;4.55;;;0.85;;
53036;SDS011;38924;52.134;4.666;2024-01-16T01:22:34;10.27;;;1.30;;
53036;SDS011;38924;52.134;4.666;2024-01-16T01:24:59;10.63;;;0.75;;
53036;SDS011;38924;52.134;4.666;2024-01-16T01:27:25;7.50;;;0.75;;
53036;SDS011;38924;52.134;4.666;2024-01-16T01:29:51;7.93;;;0.93;;
53036;SDS011;38924;52.134;4.666;2024-01-16T01:32:17;8.48;;;0.70;;
53036;SDS011;38924;52.134;4.666;2024-01-16T01:34:42;7.55;;;0.77;;
53036;SDS011;38924;52.134;4.666;2024-01-16T01:37:08;4.57;;;0.73;;
53036;SDS011;38924;52.134;4.666;2024-01-16T01:39:33;4.13;;;1.27;;
53036;SDS011;38924;52.134;4.666;2024-01-16T01:41:59;3.90;;;0.95;;
53036;SDS011;38924;52.134;4.666;2024-01-16T01:44:25;3.80;;;0.57;;
53036;SDS011;38924;52.134;4.666;2024-01-16T01:46:51;8.77;;;0.85;;
53036;SDS011;38924;52.134;4.666;2024-01-16T01:49:19;3.97;;;0.60;;
53036;SDS011;38924;52.134;4.666;2024-01-16T01:51:48;2.88;;;0.40;;
53036;SDS011;38924;52.134;4.666;2024-01-16T01:54:17;3.65;;;0.60;;
53036;SDS011;38924;52.134;4.666;2024-01-16T01:56:44;2.17;;;0.50;;
53036;SDS011;38924;52.134;4.666;2024-01-16T01:59:11;4.60;;;0.50;;
53036;SDS011;38924;52.134;4.666;2024-01-16T02:01:38;3.78;;;0.68;;
53036;SDS011;38924;52.134;4.666;2024-01-16T02:04:04;2.03;;;0.55;;
53036;SDS011;38924;52.134;4.666;2024-01-16T02:06:29;1.42;;;0.38;;
53036;SDS011;38924;52.134;4.666;2024-01-16T02:08:55;8.85;;;1.33;;
53036;SDS011;38924;52.134;4.666;2024-01-16T02:11:21;6.45;;;0.30;;
53036;SDS011;38924;52.134;4.666;2024-01-16T02:13:46;3.38;;;0.63;;
53036;SDS011;38924;52.134;4.666;2024-01-16T02:16:19;5.93;;;0.82;;
53036;SDS011;38924;52.134;4.666;2024-01-16T02:18:45;6.25;;;0.77;;
53036;SDS011;38924;52.134;4.666;2024-01-16T02:21:11;8.63;;;0.82;;
53036;SDS011;38924;52.134;4.666;2024-01-16T02:23:38;3.50;;;0.63;;
53036;SDS011;38924;52.134;4.666;2024-01-16T02:26:03;6.55;;;0.80;;
53036;SDS011;38924;52.134;4.666;2024-01-16T02:28:29;3.75;;;1.00;;
53036;SDS011;38924;52.134;4.666;2024-01-16T02:30:55;10.15;;;2.65;;
53036;SDS011;38924;52.134;4.666;2024-01-16T02:33:21;7.75;;;0.98;;
53036;SDS011;38924;52.134;4.666;2024-01-16T02:35:46;5.13;;;0.82;;
53036;SDS011;38924;52.134;4.666;2024-01-16T02:38:12;6.47;;;1.02;;
53036;SDS011;38924;52.134;4.666;2024-01-16T02:40:38;7.07;;;0.93;;
53036;SDS011;38924;52.134;4.666;2024-01-16T02:43:03;10.63;;;0.93;;
53036;SDS011;38924;52.134;4.666;2024-01-16T02:45:29;7.25;;;0.90;;
53036;SDS011;38924;52.134;4.666;2024-01-16T02:47:54;5.88;;;2.17;;
53036;SDS011;38924;52.134;4.666;2024-01-16T02:50:20;9.65;;;1.48;;
53036;SDS011;38924;52.134;4.666;2024-01-16T02:52:46;4.38;;;0.75;;
53036;SDS011;38924;52.134;4.666;2024-01-16T02:55:12;13.13;;;1.77;;
53036;SDS011;38924;52.134;4.666;2024-01-16T02:57:37;9.13;;;0.95;;
53036;SDS011;38924;52.134;4.666;2024-01-16T03:00:03;12.80;;;0.93;;
53036;SDS011;38924;52.134;4.666;2024-01-16T03:02:32;9.32;;;1.23;;
53036;SDS011;38924;52.134;4.666;2024-01-16T03:04:58;6.63;;;0.95;;
53036;SDS011;38924;52.134;4.666;2024-01-16T03:07:23;10.55;;;1.40;;
53036;SDS011;38924;52.134;4.666;2024-01-16T03:09:49;14.50;;;1.25;;
53036;SDS011;38924;52.134;4.666;2024-01-16T03:12:14;11.07;;;0.77;;
53036;SDS011;38924;52.134;4.666;2024-01-16T03:14:40;2.53;;;0.75;;
53036;SDS011;38924;52.134;4.666;2024-01-16T03:17:06;6.28;;;2.00;;
53036;SDS011;38924;52.134;4.666;2024-01-16T03:19:32;5.95;;;1.00;;
53036;SDS011;38924;52.134;4.666;2024-01-16T03:21:58;6.55;;;1.85;;
53036;SDS011;38924;52.134;4.666;2024-01-16T03:24:23;11.43;;;1.23;;
53036;SDS011;38924;52.134;4.666;2024-01-16T03:26:49;6.38;;;1.20;;
53036;SDS011;38924;52.134;4.666;2024-01-16T03:29:15;7.90;;;1.05;;
53036;SDS011;38924;52.134;4.666;2024-01-16T03:31:41;10.40;;;1.30;;
53036;SDS011;38924;52.134;4.666;2024-01-16T03:34:07;9.43;;;1.08;;
53036;SDS011;38924;52.134;4.666;2024-01-16T03:36:36;3.40;;;1.15;;
53036;SDS011;38924;52.134;4.666;2024-01-16T03:39:01;12.48;;;1.10;;
53036;SDS011;38924;52.134;4.666;2024-01-16T03:41:27;15.63;;;1.30;;
53036;SDS011;38924;52.134;4.666;2024-01-16T03:43:53;11.70;;;1.20;;
53036;SDS011;38924;52.134;4.666;2024-01-16T03:46:22;8.90;;;0.90;;
53036;SDS011;38924;52.134;4.666;2024-01-16T03:48:50;8.55;;;1.35;;
53036;SDS011;38924;52.134;4.666;2024-01-16T03:51:16;8.32;;;0.88;;
53036;SDS011;38924;52.134;4.666;2024-01-16T03:53:43;19.55;;;2.60;;
53036;SDS011;38924;52.134;4.666;2024-01-16T03:56:09;12.18;;;2.00;;
53036;SDS011;38924;52.134;4.666;2024-01-16T03:58:35;11.20;;;0.82;;
53036;SDS011;38924;52.134;4.666;2024-01-16T04:01:01;6.95;;;1.45;;
53036;SDS011;38924;52.134;4.666;2024-01-16T04:03:27;5.82;;;1.27;;
53036;SDS011;38924;52.134;4.666;2024-01-16T04:05:52;3.10;;;0.60;;
53036;SDS011;38924;52.134;4.666;2024-01-16T04:08:18;8.82;;;2.42;;
53036;SDS011;38924;52.134;4.666;2024-01-16T04:10:43;10.85;;;1.65;;
53036;SDS011;38924;52.134;4.666;2024-01-16T04:13:09;3.63;;;0.73;;
53036;SDS011;38924;52.134;4.666;2024-01-16T04:15:37;9.98;;;1.05;;
53036;SDS011;38924;52.134;4.666;2024-01-16T04:18:03;4.28;;;0.95;;
53036;SDS011;38924;52.134;4.666;2024-01-16T04:20:29;9.18;;;1.30;;
53036;SDS011;38924;52.134;4.666;2024-01-16T04:22:54;5.25;;;1.00;;
53036;SDS011;38924;52.134;4.666;2024-01-16T04:25:20;11.00;;;1.20;;
53036;SDS011;38924;52.134;4.666;2024-01-16T04:27:46;7.90;;;1.55;;
53036;SDS011;38924;52.134;4.666;2024-01-16T04:30:11;5.05;;;1.02;;
53036;SDS011;38924;52.134;4.666;2024-01-16T04:32:37;3.75;;;0.80;;
53036;SDS011;38924;52.134;4.666;2024-01-16T04:35:03;9.88;;;1.23;;
53036;SDS011;38924;52.134;4.666;2024-01-16T04:37:29;12.07;;;1.73;;
53036;SDS011;38924;52.134;4.666;2024-01-16T04:39:56;5.28;;;0.98;;
53036;SDS011;38924;52.134;4.666;2024-01-16T04:42:23;7.85;;;1.10;;
53036;SDS011;38924;52.134;4.666;2024-01-16T04:44:49;9.77;;;1.05;;
53036;SDS011;38924;52.134;4.666;2024-01-16T04:47:14;7.65;;;1.00;;
53036;SDS011;38924;52.134;4.666;2024-01-16T04:49:41;6.43;;;1.58;;
53036;SDS011;38924;52.134;4.666;2024-01-16T04:52:07;8.68;;;2.08;;
53036;SDS011;38924;52.134;4.666;2024-01-16T04:54:35;15.38;;;1.52;;
53036;SDS011;38924;52.134;4.666;2024-01-16T04:57:03;9.98;;;1.33;;
53036;SDS011;38924;52.134;4.666;2024-01-16T04:59:33;11.13;;;1.15;;
53036;SDS011;38924;52.134;4.666;2024-01-16T05:01:58;10.00;;;1.63;;
53036;SDS011;38924;52.134;4.666;2024-01-16T05:04:24;8.43;;;1.40;;
53036;SDS011;38924;52.134;4.666;2024-01-16T05:06:52;5.25;;;0.85;;
53036;SDS011;38924;52.134;4.666;2024-01-16T05:09:18;7.47;;;1.20;;
53036;SDS011;38924;52.134;4.666;2024-01-16T05:11:48;5.85;;;1.00;;
53036;SDS011;38924;52.134;4.666;2024-01-16T05:14:16;8.13;;;1.38;;
53036;SDS011;38924;52.134;4.666;2024-01-16T05:16:42;15.30;;;1.48;;
53036;SDS011;38924;52.134;4.666;2024-01-16T05:19:10;7.40;;;1.33;;
53036;SDS011;38924;52.134;4.666;2024-01-16T05:21:40;11.93;;;3.17;;
53036;SDS011;38924;52.134;4.666;2024-01-16T05:24:05;11.32;;;2.63;;
53036;SDS011;38924;52.134;4.666;2024-01-16T05:26:31;13.27;;;3.05;;
53036;SDS011;38924;52.134;4.666;2024-01-16T05:28:57;9.68;;;1.83;;
53036;SDS011;38924;52.134;4.666;2024-01-16T05:31:22;12.25;;;1.75;;
53036;SDS011;38924;52.134;4.666;2024-01-16T05:33:48;6.57;;;1.67;;
53036;SDS011;38924;52.134;4.666;2024-01-16T05:36:14;12.68;;;1.77;;
53036;SDS011;38924;52.134;4.666;2024-01-16T05:38:42;7.28;;;1.80;;
53036;SDS011;38924;52.134;4.666;2024-01-16T05:41:09;9.15;;;1.40;;
53036;SDS011;38924;52.134;4.666;2024-01-16T05:43:35;15.45;;;4.00;;
53036;SDS011;38924;52.134;4.666;2024-01-16T05:46:01;15.80;;;2.17;;
53036;SDS011;38924;52.134;4.666;2024-01-16T05:48:26;9.70;;;2.50;;
53036;SDS011;38924;52.134;4.666;2024-01-16T05:50:52;13.27;;;2.85;;
53036;SDS011;38924;52.134;4.666;2024-01-16T05:53:18;16.55;;;3.03;;
53036;SDS011;38924;52.134;4.666;2024-01-16T05:55:44;13.13;;;3.13;;
53036;SDS011;38924;52.134;4.666;2024-01-16T05:58:10;6.82;;;3.38;;
53036;SDS011;38924;52.134;4.666;2024-01-16T06:00:35;13.63;;;3.22;;
53036;SDS011;38924;52.134;4.666;2024-01-16T06:03:01;18.70;;;4.82;;
53036;SDS011;38924;52.134;4.666;2024-01-16T06:05:26;11.02;;;4.63;;
53036;SDS011;38924;52.134;4.666;2024-01-16T06:07:52;11.57;;;3.60;;
53036;SDS011;38924;52.134;4.666;2024-01-16T06:10:18;6.68;;;3.58;;
53036;SDS011;38924;52.134;4.666;2024-01-16T06:12:46;9.35;;;3.75;;
53036;SDS011;38924;52.134;4.666;2024-01-16T06:15:12;11.38;;;3.95;;
53036;SDS011;38924;52.134;4.666;2024-01-16T06:17:37;15.80;;;3.88;;
53036;SDS011;38924;52.134;4.666;2024-01-16T06:20:03;17.02;;;3.30;;
53036;SDS011;38924;52.134;4.666;2024-01-16T06:22:30;11.60;;;3.83;;
53036;SDS011;38924;52.134;4.666;2024-01-16T06:24:56;14.40;;;3.92;;
53036;SDS011;38924;52.134;4.666;2024-01-16T06:27:21;7.80;;;3.55;;
53036;SDS011;38924;52.134;4.666;2024-01-16T06:29:50;13.27;;;4.18;;
53036;SDS011;38924;52.134;4.666;2024-01-16T06:32:19;15.13;;;4.97;;
53036;SDS011;38924;52.134;4.666;2024-01-16T06:34:51;15.80;;;4.80;;
53036;SDS011;38924;52.134;4.666;2024-01-16T06:37:19;9.93;;;4.43;;
53036;SDS011;38924;52.134;4.666;2024-01-16T06:39:45;14.07;;;4.47;;
53036;SDS011;38924;52.134;4.666;2024-01-16T06:42:10;10.65;;;4.30;;
53036;SDS011;38924;52.134;4.666;2024-01-16T06:44:36;9.43;;;4.25;;
53036;SDS011;38924;52.134;4.666;2024-01-16T06:47:02;14.57;;;5.18;;
53036;SDS011;38924;52.134;4.666;2024-01-16T06:49:28;13.32;;;5.50;;
53036;SDS011;38924;52.134;4.666;2024-01-16T06:51:53;12.23;;;6.20;;
53036;SDS011;38924;52.134;4.666;2024-01-16T06:54:19;11.00;;;5.35;;
53036;SDS011;38924;52.134;4.666;2024-01-16T06:56:46;11.55;;;5.07;;
53036;SDS011;38924;52.134;4.666;2024-01-16T06:59:11;14.05;;;5.20;;
53036;SDS011;38924;52.134;4.666;2024-01-16T07:01:37;9.13;;;5.13;;
53036;SDS011;38924;52.134;4.666;2024-01-16T07:04:03;12.73;;;5.43;;
53036;SDS011;38924;52.134;4.666;2024-01-16T07:06:29;12.60;;;5.60;;
53036;SDS011;38924;52.134;4.666;2024-01-16T07:08:54;12.20;;;5.88;;
53036;SDS011;38924;52.134;4.666;2024-01-16T07:11:20;16.83;;;7.43;;
53036;SDS011;38924;52.134;4.666;2024-01-16T07:13:46;21.42;;;8.15;;
53036;SDS011;38924;52.134;4.666;2024-01-16T07:16:12;18.15;;;6.53;;
53036;SDS011;38924;52.134;4.666;2024-01-16T07:18:38;14.75;;;5.78;;
53036;SDS011;38924;52.134;4.666;2024-01-16T07:21:04;11.02;;;5.63;;
53036;SDS011;38924;52.134;4.666;2024-01-16T07:23:30;15.55;;;5.63;;
53036;SDS011;38924;52.134;4.666;2024-01-16T07:25:56;12.30;;;5.85;;
53036;SDS011;38924;52.134;4.666;2024-01-16T07:28:21;12.75;;;5.40;;
53036;SDS011;38924;52.134;4.666;2024-01-16T07:30:47;14.77;;;6.28;;
53036;SDS011;38924;52.134;4.666;2024-01-16T07:33:13;17.75;;;5.20;;
53036;SDS011;38924;52.134;4.666;2024-01-16T07:35:39;17.77;;;5.25;;
53036;SDS011;38924;52.134;4.666;2024-01-16T07:38:06;13.77;;;4.60;;
53036;SDS011;38924;52.134;4.666;2024-01-16T07:40:32;16.40;;;5.18;;
53036;SDS011;38924;52.134;4.666;2024-01-16T07:42:58;10.48;;;4.10;;
53036;SDS011;38924;52.134;4.666;2024-01-16T07:45:24;15.65;;;4.10;;
53036;SDS011;38924;52.134;4.666;2024-01-16T07:47:52;17.85;;;3.90;;
53036;SDS011;38924;52.134;4.666;2024-01-16T07:50:20;14.82;;;3.33;;
53036;SDS011;38924;52.134;4.666;2024-01-16T07:52:46;17.13;;;2.97;;
53036;SDS011;38924;52.134;4.666;2024-01-16T07:55:12;11.73;;;3.05;;
53036;SDS011;38924;52.134;4.666;2024-01-16T07:57:37;15.82;;;3.22;;
53036;SDS011;38924;52.134;4.666;2024-01-16T08:00:03;13.68;;;3.22;;
53036;SDS011;38924;52.134;4.666;2024-01-16T08:02:33;12.88;;;2.95;;
53036;SDS011;38924;52.134;4.666;2024-01-16T08:05:02;12.02;;;3.35;;
53036;SDS011;38924;52.134;4.666;2024-01-16T08:07:28;16.48;;;2.85;;
53036;SDS011;38924;52.134;4.666;2024-01-16T08:09:54;10.52;;;3.67;;
53036;SDS011;38924;52.134;4.666;2024-01-16T08:12:19;10.20;;;1.90;;
53036;SDS011;38924;52.134;4.666;2024-01-16T08:14:45;4.32;;;1.73;;
53036;SDS011;38924;52.134;4.666;2024-01-16T08:17:11;10.07;;;2.15;;
53036;SDS011;38924;52.134;4.666;2024-01-16T08:19:37;12.43;;;2.08;;
53036;SDS011;38924;52.134;4.666;2024-01-16T08:22:02;13.98;;;2.33;;
53036;SDS011;38924;52.134;4.666;2024-01-16T08:24:31;13.50;;;1.90;;
53036;SDS011;38924;52.134;4.666;2024-01-16T08:26:59;9.63;;;1.92;;
53036;SDS011;38924;52.134;4.666;2024-01-16T08:29:24;6.53;;;1.77;;
53036;SDS011;38924;52.134;4.666;2024-01-16T08:31:50;7.05;;;3.05;;
53036;SDS011;38924;52.134;4.666;2024-01-16T08:34:19;12.10;;;2.20;;
53036;SDS011;38924;52.134;4.666;2024-01-16T08:36:44;13.32;;;2.55;;
53036;SDS011;38924;52.134;4.666;2024-01-16T08:39:10;13.02;;;2.25;;
53036;SDS011;38924;52.134;4.666;2024-01-16T08:41:36;10.38;;;1.88;;
53036;SDS011;38924;52.134;4.666;2024-01-16T08:44:02;6.57;;;1.80;;
53036;SDS011;38924;52.134;4.666;2024-01-16T08:46:30;7.03;;;1.48;;
53036;SDS011;38924;52.134;4.666;2024-01-16T08:48:55;16.90;;;2.92;;
53036;SDS011;38924;52.134;4.666;2024-01-16T08:51:22;9.10;;;1.70;;
53036;SDS011;38924;52.134;4.666;2024-01-16T08:53:47;8.25;;;1.65;;
53036;SDS011;38924;52.134;4.666;2024-01-16T08:56:13;6.25;;;2.75;;
53036;SDS011;38924;52.134;4.666;2024-01-16T08:58:39;15.27;;;3.25;;
53036;SDS011;38924;52.134;4.666;2024-01-16T09:01:05;11.75;;;2.35;;
53036;SDS011;38924;52.134;4.666;2024-01-16T09:03:31;7.80;;;2.33;;
53036;SDS011;38924;52.134;4.666;2024-01-16T09:05:57;6.30;;;1.75;;
53036;SDS011;38924;52.134;4.666;2024-01-16T09:08:23;4.80;;;0.88;;
53036;SDS011;38924;52.134;4.666;2024-01-16T09:10:48;8.45;;;1.40;;
53036;SDS011;38924;52.134;4.666;2024-01-16T09:13:14;5.32;;;1.30;;
53036;SDS011;38924;52.134;4.666;2024-01-16T09:15:40;6.90;;;0.95;;
53036;SDS011;38924;52.134;4.666;2024-01-16T09:18:05;8.88;;;1.33;;
53036;SDS011;38924;52.134;4.666;2024-01-16T09:20:31;6.05;;;1.13;;
53036;SDS011;38924;52.134;4.666;2024-01-16T09:22:57;6.15;;;1.30;;
53036;SDS011;38924;52.134;4.666;2024-01-16T09:25:22;5.50;;;1.20;;
53036;SDS011;38924;52.134;4.666;2024-01-16T09:27:52;13.93;;;1.20;;
53036;SDS011;38924;52.134;4.666;2024-01-16T09:30:18;15.05;;;2.47;;
53036;SDS011;38924;52.134;4.666;2024-01-16T09:32:44;11.73;;;2.17;;
53036;SDS011;38924;52.134;4.666;2024-01-16T09:35:10;4.07;;;0.95;;
53036;SDS011;38924;52.134;4.666;2024-01-16T09:37:36;12.32;;;3.78;;
53036;SDS011;38924;52.134;4.666;2024-01-16T09:40:02;5.30;;;1.17;;
53036;SDS011;38924;52.134;4.666;2024-01-16T09:42:30;6.20;;;0.85;;
53036;SDS011;38924;52.134;4.666;2024-01-16T09:44:56;4.65;;;1.17;;
53036;SDS011;38924;52.134;4.666;2024-01-16T09:47:25;7.38;;;1.60;;
53036;SDS011;38924;52.134;4.666;2024-01-16T09:49:51;13.27;;;1.40;;
53036;SDS011;38924;52.134;4.666;2024-01-16T09:52:17;8.15;;;1.25;;
53036;SDS011;38924;52.134;4.666;2024-01-16T09:54:43;15.32;;;2.15;;
53036;SDS011;38924;52.134;4.666;2024-01-16T09:57:09;4.53;;;0.85;;
53036;SDS011;38924;52.134;4.666;2024-01-16T09:59:36;8.88;;;1.42;;
53036;SDS011;38924;52.134;4.666;2024-01-16T10:02:04;4.47;;;0.90;;
53036;SDS011;38924;52.134;4.666;2024-01-16T10:04:35;16.75;;;1.45;;
53036;SDS011;38924;52.134;4.666;2024-01-16T10:07:01;9.27;;;1.33;;
53036;SDS011;38924;52.134;4.666;2024-01-16T10:09:27;7.10;;;0.90;;
53036;SDS011;38924;52.134;4.666;2024-01-16T10:11:53;3.30;;;0.98;;
53036;SDS011;38924;52.134;4.666;2024-01-16T10:14:20;9.60;;;1.33;;
53036;SDS011;38924;52.134;4.666;2024-01-16T10:16:58;6.63;;;1.42;;
53036;SDS011;38924;52.134;4.666;2024-01-16T10:19:26;9.27;;;1.30;;
53036;SDS011;38924;52.134;4.666;2024-01-16T10:21:52;1.95;;;0.70;;
53036;SDS011;38924;52.134;4.666;2024-01-16T10:24:18;4.75;;;0.77;;
53036;SDS011;38924;52.134;4.666;2024-01-16T10:26:43;6.15;;;0.80;;
53036;SDS011;38924;52.134;4.666;2024-01-16T10:29:09;10.70;;;1.45;;
53036;SDS011;38924;52.134;4.666;2024-01-16T10:31:37;6.18;;;0.80;;
53036;SDS011;38924;52.134;4.666;2024-01-16T10:34:18;2.83;;;0.70;;
53036;SDS011;38924;52.134;4.666;2024-01-16T10:36:44;4.28;;;1.10;;
53036;SDS011;38924;52.134;4.666;2024-01-16T10:39:10;5.55;;;1.17;;
53036;SDS011;38924;52.134;4.666;2024-01-16T10:41:36;5.32;;;1.20;;
53036;SDS011;38924;52.134;4.666;2024-01-16T10:44:03;3.65;;;1.10;;
53036;SDS011;38924;52.134;4.666;2024-01-16T10:46:32;7.25;;;1.48;;
53036;SDS011;38924;52.134;4.666;2024-01-16T10:48:58;4.25;;;0.90;;
53036;SDS011;38924;52.134;4.666;2024-01-16T10:51:24;5.72;;;0.82;;
53036;SDS011;38924;52.134;4.666;2024-01-16T10:53:51;4.05;;;0.98;;
53036;SDS011;38924;52.134;4.666;2024-01-16T10:56:18;8.57;;;0.82;;
53036;SDS011;38924;52.134;4.666;2024-01-16T10:58:44;5.95;;;1.05;;
53036;SDS011;38924;52.134;4.666;2024-01-16T11:01:11;5.72;;;1.75;;
53036;SDS011;38924;52.134;4.666;2024-01-16T11:06:05;10.45;;;1.58;;
53036;SDS011;38924;52.134;4.666;2024-01-16T11:08:31;7.25;;;1.33;;
53036;SDS011;38924;52.134;4.666;2024-01-16T11:10:59;6.53;;;0.70;;
53036;SDS011;38924;52.134;4.666;2024-01-16T11:13:30;4.72;;;0.80;;
53036;SDS011;38924;52.134;4.666;2024-01-16T11:15:56;5.55;;;0.63;;
53036;SDS011;38924;52.134;4.666;2024-01-16T11:18:22;2.53;;;0.60;;
53036;SDS011;38924;52.134;4.666;2024-01-16T11:20:50;4.32;;;1.30;;
53036;SDS011;38924;52.134;4.666;2024-01-16T11:23:16;8.73;;;1.08;;
53036;SDS011;38924;52.134;4.666;2024-01-16T11:25:42;7.53;;;0.80;;
53036;SDS011;38924;52.134;4.666;2024-01-16T11:28:16;4.40;;;0.73;;
53036;SDS011;38924;52.134;4.666;2024-01-16T11:30:46;5.85;;;1.10;;
53036;SDS011;38924;52.134;4.666;2024-01-16T11:35:57;3.28;;;0.63;;
53036;SDS011;38924;52.134;4.666;2024-01-16T11:38:23;4.55;;;0.68;;
53036;SDS011;38924;52.134;4.666;2024-01-16T11:40:55;8.05;;;0.90;;
53036;SDS011;38924;52.134;4.666;2024-01-16T11:45:58;7.18;;;1.35;;
53036;SDS011;38924;52.134;4.666;2024-01-16T11:48:24;4.72;;;0.75;;
53036;SDS011;38924;52.134;4.666;2024-01-16T11:50:50;7.03;;;0.85;;
53036;SDS011;38924;52.134;4.666;2024-01-16T11:58:48;6.03;;;0.88;;
53036;SDS011;38924;52.134;4.666;2024-01-16T12:01:19;5.28;;;0.70;;
53036;SDS011;38924;52.134;4.666;2024-01-16T12:04:03;3.47;;;0.82;;
53036;SDS011;38924;52.134;4.666;2024-01-16T12:06:30;3.40;;;0.68;;
53036;SDS011;38924;52.134;4.666;2024-01-16T12:09:11;2.58;;;0.60;;
53036;SDS011;38924;52.134;4.666;2024-01-16T12:11:38;3.28;;;0.60;;
53036;SDS011;38924;52.134;4.666;2024-01-16T12:14:03;4.40;;;0.70;;
53036;SDS011;38924;52.134;4.666;2024-01-16T12:16:29;5.07;;;0.88;;
53036;SDS011;38924;52.134;4.666;2024-01-16T12:19:05;4.13;;;0.73;;
53036;SDS011;38924;52.134;4.666;2024-01-16T12:21:32;6.50;;;0.75;;
53036;SDS011;38924;52.134;4.666;2024-01-16T12:23:58;3.63;;;1.00;;
53036;SDS011;38924;52.134;4.666;2024-01-16T12:26:24;5.88;;;0.90;;
53036;SDS011;38924;52.134;4.666;2024-01-16T12:28:51;4.95;;;0.70;;
53036;SDS011;38924;52.134;4.666;2024-01-16T12:31:19;4.30;;;0.75;;
53036;SDS011;38924;52.134;4.666;2024-01-16T12:33:45;4.00;;;0.60;;
53036;SDS011;38924;52.134;4.666;2024-01-16T12:36:11;6.93;;;1.00;;
53036;SDS011;38924;52.134;4.666;2024-01-16T12:38:36;8.98;;;0.90;;
53036;SDS011;38924;52.134;4.666;2024-01-16T12:41:02;5.65;;;1.42;;
53036;SDS011;38924;52.134;4.666;2024-01-16T12:43:32;2.83;;;0.93;;
53036;SDS011;38924;52.134;4.666;2024-01-16T12:46:18;3.88;;;0.75;;
53036;SDS011;38924;52.134;4.666;2024-01-16T12:48:44;10.68;;;0.70;;
53036;SDS011;38924;52.134;4.666;2024-01-16T12:51:16;5.18;;;0.68;;
53036;SDS011;38924;52.134;4.666;2024-01-16T12:53:45;3.60;;;0.60;;
53036;SDS011;38924;52.134;4.666;2024-01-16T12:56:11;2.83;;;0.70;;
53036;SDS011;38924;52.134;4.666;2024-01-16T12:58:37;1.88;;;0.73;;
53036;SDS011;38924;52.134;4.666;2024-01-16T13:03:47;9.32;;;1.30;;
53036;SDS011;38924;52.134;4.666;2024-01-16T13:06:17;7.07;;;0.57;;
53036;SDS011;38924;52.134;4.666;2024-01-16T13:08:42;5.30;;;0.60;;
53036;SDS011;38924;52.134;4.666;2024-01-16T13:11:08;6.47;;;0.70;;
53036;SDS011;38924;52.134;4.666;2024-01-16T13:13:37;5.47;;;0.90;;
53036;SDS011;38924;52.134;4.666;2024-01-16T13:16:04;4.30;;;0.70;;
53036;SDS011;38924;52.134;4.666;2024-01-16T13:18:33;3.90;;;0.60;;
53036;SDS011;38924;52.134;4.666;2024-01-16T13:20:59;5.15;;;0.65;;
53036;SDS011;38924;52.134;4.666;2024-01-16T13:23:25;3.97;;;0.80;;
53036;SDS011;38924;52.134;4.666;2024-01-16T13:25:51;5.10;;;1.10;;
53036;SDS011;38924;52.134;4.666;2024-01-16T13:28:17;5.47;;;1.15;;
53036;SDS011;38924;52.134;4.666;2024-01-16T13:30:44;4.57;;;0.75;;
53036;SDS011;38924;52.134;4.666;2024-01-16T13:33:10;5.00;;;0.90;;
53036;SDS011;38924;52.134;4.666;2024-01-16T13:35:39;10.70;;;0.60;;
53036;SDS011;38924;52.134;4.666;2024-01-16T13:38:06;6.95;;;1.33;;
53036;SDS011;38924;52.134;4.666;2024-01-16T13:40:32;4.10;;;0.70;;
53036;SDS011;38924;52.134;4.666;2024-01-16T13:42:58;5.15;;;1.23;;
53036;SDS011;38924;52.134;4.666;2024-01-16T13:45:24;18.38;;;1.50;;
53036;SDS011;38924;52.134;4.666;2024-01-16T13:47:50;5.53;;;0.68;;
53036;SDS011;38924;52.134;4.666;2024-01-16T13:50:15;7.15;;;0.60;;
53036;SDS011;38924;52.134;4.666;2024-01-16T13:52:43;2.60;;;0.63;;
53036;SDS011;38924;52.134;4.666;2024-01-16T13:55:09;2.55;;;0.50;;
53036;SDS011;38924;52.134;4.666;2024-01-16T13:57:35;2.80;;;0.45;;
53036;SDS011;38924;52.134;4.666;2024-01-16T14:00:02;10.02;;;0.80;;
53036;SDS011;38924;52.134;4.666;2024-01-16T14:02:37;3.03;;;0.40;;
53036;SDS011;38924;52.134;4.666;2024-01-16T14:05:04;5.28;;;0.70;;
53036;SDS011;38924;52.134;4.666;2024-01-16T14:07:31;7.38;;;1.08;;
53036;SDS011;38924;52.134;4.666;2024-01-16T14:09:57;3.58;;;0.60;;
53036;SDS011;38924;52.134;4.666;2024-01-16T14:12:23;4.80;;;1.13;;
53036;SDS011;38924;52.134;4.666;2024-01-16T14:14:50;2.53;;;0.43;;
53036;SDS011;38924;52.134;4.666;2024-01-16T14:17:16;3.97;;;0.73;;
53036;SDS011;38924;52.134;4.666;2024-01-16T14:19:42;7.40;;;0.90;;
53036;SDS011;38924;52.134;4.666;2024-01-16T14:22:08;3.78;;;0.65;;
53036;SDS011;38924;52.134;4.666;2024-01-16T14:24:34;2.63;;;0.75;;
53036;SDS011;38924;52.134;4.666;2024-01-16T14:27:00;5.03;;;0.65;;
53036;SDS011;38924;52.134;4.666;2024-01-16T14:29:25;4.32;;;0.70;;
53036;SDS011;38924;52.134;4.666;2024-01-16T14:31:54;5.57;;;1.10;;
53036;SDS011;38924;52.134;4.666;2024-01-16T14:34:21;4.45;;;1.00;;
53036;SDS011;38924;52.134;4.666;2024-01-16T14:36:47;5.85;;;0.88;;
53036;SDS011;38924;52.134;4.666;2024-01-16T14:39:12;3.55;;;1.38;;
53036;SDS011;38924;52.134;4.666;2024-01-16T14:41:47;2.58;;;0.63;;
53036;SDS011;38924;52.134;4.666;2024-01-16T14:44:13;3.97;;;0.95;;
53036;SDS011;38924;52.134;4.666;2024-01-16T14:46:40;4.30;;;0.80;;
53036;SDS011;38924;52.134;4.666;2024-01-16T14:49:08;5.47;;;1.85;;
53036;SDS011;38924;52.134;4.666;2024-01-16T14:51:37;4.93;;;0.88;;
53036;SDS011;38924;52.134;4.666;2024-01-16T14:54:03;1.73;;;0.80;;
53036;SDS011;38924;52.134;4.666;2024-01-16T14:56:30;3.88;;;0.80;;